createdAt,value
2022-10-07T00:03:24.355Z,8.30
2022-10-07T00:07:25.976Z,8.30
2022-10-07T00:11:28.415Z,8.30
2022-10-07T00:15:30.056Z,8.30
2022-10-07T00:19:32.860Z,8.20
2022-10-07T00:23:35.271Z,8.10
2022-10-07T00:27:37.226Z,8.20
2022-10-07T00:31:39.138Z,8.10
2022-10-07T00:35:40.802Z,8.10
2022-10-07T00:39:42.366Z,8.00
2022-10-07T00:43:44.136Z,8.00
2022-10-07T00:47:47.385Z,8.00
2022-10-07T00:51:50.546Z,8.10
2022-10-07T00:55:52.188Z,8.20
2022-10-07T00:59:55.536Z,8.10
2022-10-07T01:03:57.309Z,8.10
2022-10-07T01:08:00.074Z,7.90
2022-10-07T01:12:10.915Z,7.90
2022-10-07T01:16:18.637Z,7.90
2022-10-07T01:20:45.275Z,8.00
2022-10-07T01:24:55.134Z,7.90
2022-10-07T01:29:04.256Z,7.80
2022-10-07T01:33:07.337Z,7.90
2022-10-07T01:37:12.052Z,7.80
2022-10-07T01:41:18.351Z,7.70
2022-10-07T01:45:22.230Z,7.70
2022-10-07T01:49:23.879Z,7.80
2022-10-07T01:53:51.824Z,7.70
2022-10-07T01:58:06.301Z,7.60
2022-10-07T02:02:17.544Z,7.70
2022-10-07T02:06:28.338Z,7.60
2022-10-07T02:10:32.980Z,7.70
2022-10-07T02:14:38.339Z,7.70
2022-10-07T02:18:43.828Z,7.50
2022-10-07T02:22:46.329Z,7.60
2022-10-07T02:26:49.500Z,7.60
2022-10-07T02:30:53.658Z,7.40
2022-10-07T02:34:59.855Z,7.40
2022-10-07T02:39:02.191Z,7.40
2022-10-07T02:43:06.488Z,7.40
2022-10-07T02:47:19.943Z,7.30
2022-10-07T02:51:22.760Z,7.50
2022-10-07T02:55:26.008Z,7.50
2022-10-07T02:59:28.100Z,7.40
2022-10-07T03:03:30.419Z,7.40
2022-10-07T03:07:33.309Z,7.40
2022-10-07T03:11:36.088Z,7.30
2022-10-07T03:15:42.643Z,7.30
2022-10-07T03:19:44.486Z,7.30
2022-10-07T03:23:49.587Z,7.20
2022-10-07T03:27:51.238Z,7.20
2022-10-07T03:31:55.701Z,7.10
2022-10-07T03:35:57.320Z,7.10
2022-10-07T03:39:58.924Z,7.00
2022-10-07T03:44:00.545Z,7.00
2022-10-07T03:48:02.138Z,7.00
2022-10-07T03:52:03.717Z,7.00
2022-10-07T03:56:05.369Z,7.10
2022-10-07T04:00:07.265Z,7.00
2022-10-07T04:04:09.200Z,6.70
2022-10-07T04:08:15.816Z,6.70
2022-10-07T04:12:17.443Z,6.70
2022-10-07T04:16:19.842Z,6.60
2022-10-07T04:20:21.541Z,6.70
2022-10-07T04:24:23.124Z,6.70
2022-10-07T04:28:26.707Z,6.70
2022-10-07T04:32:28.385Z,6.70
2022-10-07T04:36:29.952Z,6.70
2022-10-07T04:40:31.463Z,6.60
2022-10-07T04:44:33.040Z,6.60
2022-10-07T04:48:35.763Z,6.60
2022-10-07T04:52:39.889Z,6.70
2022-10-07T04:56:41.606Z,6.70
2022-10-07T05:00:44.929Z,6.60
2022-10-07T05:04:46.523Z,6.50
2022-10-07T05:08:48.654Z,6.60
2022-10-07T05:12:55.717Z,6.70
2022-10-07T05:17:00.512Z,6.70
2022-10-07T05:21:08.263Z,6.70
2022-10-07T05:25:09.784Z,6.80
2022-10-07T05:29:11.416Z,6.80
2022-10-07T05:33:13.172Z,6.80
2022-10-07T05:37:15.202Z,6.80
2022-10-07T05:41:16.734Z,6.80
2022-10-07T05:45:19.519Z,6.70
2022-10-07T05:49:21.362Z,6.70
2022-10-07T05:53:23.646Z,6.60
2022-10-07T05:57:25.236Z,6.60
2022-10-07T06:01:29.853Z,6.70
2022-10-07T06:05:32.193Z,6.70
2022-10-07T06:09:52.608Z,6.70
2022-10-07T06:13:54.612Z,6.90
2022-10-07T06:17:56.190Z,6.90
2022-10-07T06:21:57.999Z,7.00
2022-10-07T06:26:04.148Z,7.10
2022-10-07T06:30:06.091Z,7.20
2022-10-07T06:34:07.744Z,7.40
2022-10-07T06:38:09.533Z,7.60
2022-10-07T06:42:13.959Z,7.80
2022-10-07T06:46:20.010Z,8.00
2022-10-07T06:50:21.673Z,8.10
2022-10-07T06:54:23.655Z,8.50
2022-10-07T06:58:26.435Z,8.70
2022-10-07T07:02:30.573Z,8.90
2022-10-07T07:06:38.658Z,9.10
2022-10-07T07:10:43.760Z,9.30
2022-10-07T07:14:45.583Z,9.50
2022-10-07T07:18:54.045Z,9.60
2022-10-07T07:22:55.702Z,9.70
2022-10-07T07:26:57.488Z,9.90
2022-10-07T07:30:59.093Z,10.10
2022-10-07T07:43:38.978Z,10.80
2022-10-07T07:47:41.184Z,11.00
2022-10-07T07:51:43.165Z,11.20
2022-10-07T07:55:57.268Z,11.40
2022-10-07T07:59:58.871Z,11.50
2022-10-07T08:04:01.123Z,11.70
2022-10-07T08:08:03.127Z,11.80
2022-10-07T08:12:05.463Z,12.00
2022-10-07T08:16:14.765Z,12.20
2022-10-07T08:20:16.626Z,12.30
2022-10-07T08:24:18.633Z,12.40
2022-10-07T08:28:20.265Z,12.60
2022-10-07T08:32:22.118Z,12.70
2022-10-07T08:36:24.447Z,12.80
2022-10-07T08:40:26.191Z,13.00
2022-10-07T08:44:36.874Z,13.10
2022-10-07T08:48:38.941Z,13.20
2022-10-07T08:52:44.351Z,13.30
2022-10-07T08:56:48.004Z,13.40
2022-10-07T09:01:01.204Z,13.50
2022-10-07T09:05:24.225Z,13.60
2022-10-07T09:09:28.592Z,13.80
2022-10-07T09:13:32.040Z,13.90
2022-10-07T09:17:39.562Z,14.10
2022-10-07T09:21:51.120Z,14.20
2022-10-07T09:25:52.844Z,14.30
2022-10-07T09:29:57.455Z,14.40
2022-10-07T09:33:59.163Z,14.50
2022-10-07T09:38:08.144Z,14.60
2022-10-07T09:42:16.574Z,14.70
2022-10-07T09:46:47.655Z,14.80
2022-10-07T09:50:49.472Z,14.80
2022-10-07T09:54:52.486Z,14.90
2022-10-07T09:59:03.067Z,14.90
2022-10-07T10:03:06.179Z,15.10
2022-10-07T10:07:19.101Z,15.30
2022-10-07T10:11:26.113Z,15.20
2022-10-07T10:15:36.799Z,15.20
2022-10-07T10:19:41.523Z,15.40
2022-10-07T10:23:47.731Z,15.60
2022-10-07T10:27:57.807Z,15.60
2022-10-07T10:32:08.728Z,15.50
2022-10-07T10:36:13.374Z,15.60
2022-10-07T10:40:19.302Z,15.80
2022-10-07T10:44:35.870Z,15.90
2022-10-07T10:48:46.786Z,15.90
2022-10-07T10:53:06.420Z,16.20
2022-10-07T10:57:27.261Z,16.30
2022-10-07T11:01:37.369Z,16.10
2022-10-07T11:05:40.483Z,16.20
2022-10-07T11:09:47.080Z,16.40
2022-10-07T11:13:58.556Z,16.40
2022-10-07T11:18:02.619Z,16.60
2022-10-07T11:22:10.668Z,16.70
2022-10-07T11:26:12.849Z,16.70
2022-10-07T11:30:20.047Z,16.60
2022-10-07T11:34:41.404Z,17.00
2022-10-07T11:38:47.033Z,16.80
2022-10-07T11:43:00.608Z,17.00
2022-10-07T11:47:04.406Z,16.90
2022-10-07T11:51:07.345Z,17.00
2022-10-07T11:55:21.125Z,17.30
2022-10-07T11:59:46.294Z,17.40
2022-10-07T12:03:48.345Z,17.30
2022-10-07T12:07:58.136Z,17.40
2022-10-07T12:11:59.992Z,17.60
2022-10-07T12:16:21.623Z,17.70
2022-10-07T12:20:46.255Z,17.80
2022-10-07T12:25:13.560Z,17.80
2022-10-07T12:29:23.899Z,18.10
2022-10-07T12:33:33.241Z,18.10
2022-10-07T12:37:50.257Z,18.20
2022-10-07T12:41:52.061Z,18.20
2022-10-07T12:45:54.565Z,18.30
2022-10-07T12:49:59.312Z,18.00
2022-10-07T12:54:01.521Z,17.90
2022-10-07T12:58:25.766Z,17.90
2022-10-07T13:02:41.817Z,17.90
2022-10-07T13:07:02.168Z,18.10
2022-10-07T13:11:26.816Z,17.90
2022-10-07T13:15:28.709Z,18.00
2022-10-07T13:19:34.572Z,18.30
2022-10-07T13:23:36.691Z,18.20
2022-10-07T13:27:38.940Z,18.20
2022-10-07T13:31:41.144Z,18.30
2022-10-07T13:35:43.141Z,18.50
2022-10-07T13:39:45.087Z,18.40
2022-10-07T13:43:47.602Z,18.60
2022-10-07T13:47:49.651Z,18.60
2022-10-07T13:51:56.099Z,18.50
2022-10-07T13:56:17.010Z,18.50
2022-10-07T14:00:21.522Z,18.40
2022-10-07T14:04:23.633Z,18.40
2022-10-07T14:08:34.364Z,18.40
2022-10-07T14:12:44.730Z,18.30
2022-10-07T14:16:51.195Z,18.40
2022-10-07T14:20:57.091Z,18.10
2022-10-07T14:25:01.542Z,18.20
2022-10-07T14:29:22.951Z,18.30
2022-10-07T14:34:04.619Z,18.20
2022-10-07T14:38:29.234Z,18.20
2022-10-07T14:42:36.266Z,18.20
2022-10-07T14:46:39.202Z,18.20
2022-10-07T14:55:56.086Z,18.20
2022-10-07T15:00:01.421Z,18.20
2022-10-07T15:04:03.850Z,18.20
2022-10-07T15:08:55.311Z,18.10
2022-10-07T15:13:00.449Z,18.10
2022-10-07T15:17:02.273Z,18.10
2022-10-07T15:35:32.986Z,18.10
2022-10-07T15:39:39.473Z,18.10
2022-10-07T15:43:43.355Z,18.00
2022-10-07T15:47:45.185Z,18.00
2022-10-07T15:51:46.990Z,17.80
2022-10-07T15:55:52.710Z,17.70
2022-10-07T15:59:54.639Z,17.80
2022-10-07T16:03:56.781Z,17.80
2022-10-07T16:07:58.457Z,17.60
2022-10-07T16:12:00.334Z,17.40
2022-10-07T16:16:03.328Z,17.30
2022-10-07T16:20:10.421Z,17.20
2022-10-07T16:24:13.769Z,17.10
2022-10-07T16:28:34.418Z,17.10
2022-10-07T16:32:36.034Z,17.10
2022-10-07T16:36:42.131Z,17.10
2022-10-07T16:40:53.731Z,17.10
2022-10-07T16:44:55.872Z,17.20
2022-10-07T16:48:57.735Z,17.10
2022-10-07T16:53:02.087Z,16.90
2022-10-07T16:57:04.232Z,16.80
2022-10-07T17:01:09.422Z,16.80
2022-10-07T17:05:11.084Z,16.80
2022-10-07T17:09:13.065Z,16.50
2022-10-07T17:13:18.887Z,16.20
2022-10-07T17:17:20.554Z,16.00
2022-10-07T17:21:22.728Z,15.70
2022-10-07T17:25:25.164Z,15.50
2022-10-07T17:29:26.744Z,15.30
2022-10-07T17:33:30.291Z,15.20
2022-10-07T17:37:32.315Z,15.10
2022-10-07T17:41:35.444Z,15.00
2022-10-07T17:45:37.975Z,14.90
2022-10-07T17:49:39.590Z,14.80
2022-10-07T17:53:41.638Z,14.70
2022-10-07T17:57:44.447Z,14.70
2022-10-07T18:01:47.489Z,14.70
2022-10-07T18:05:53.087Z,14.70
2022-10-07T18:09:54.710Z,14.60
2022-10-07T18:14:14.906Z,14.60
2022-10-07T18:18:16.572Z,14.60
2022-10-07T18:22:19.334Z,14.60
2022-10-07T18:26:20.988Z,14.50
2022-10-07T18:30:23.044Z,14.40
2022-10-07T18:34:24.949Z,14.30
2022-10-07T18:38:29.890Z,14.20
2022-10-07T18:42:35.566Z,14.10
2022-10-07T18:46:37.156Z,14.00
2022-10-07T18:50:38.807Z,13.90
2022-10-07T18:54:40.479Z,13.80
2022-10-07T18:58:43.369Z,13.70
2022-10-07T19:02:46.112Z,13.60
2022-10-07T19:06:47.842Z,13.60
2022-10-07T19:10:49.795Z,13.60
2022-10-07T19:14:51.566Z,13.50
2022-10-07T19:18:54.536Z,13.50
2022-10-07T19:22:56.234Z,13.50
2022-10-07T19:26:58.193Z,13.40
2022-10-07T19:31:09.932Z,13.40
2022-10-07T19:35:11.594Z,13.30
2022-10-07T19:39:20.828Z,13.10
2022-10-07T19:43:22.626Z,13.10
2022-10-07T19:47:24.389Z,13.00
2022-10-07T19:51:27.160Z,12.80
2022-10-07T19:55:29.686Z,12.70
2022-10-07T19:59:31.375Z,12.70
2022-10-07T20:03:33.415Z,12.60
2022-10-07T20:07:36.039Z,12.50
2022-10-07T20:11:37.777Z,12.60
2022-10-07T20:15:39.486Z,12.60
2022-10-07T20:19:41.249Z,12.50
2022-10-07T20:23:48.063Z,12.40
2022-10-07T20:27:49.781Z,12.30
2022-10-07T20:31:52.339Z,12.20
2022-10-07T20:35:54.097Z,12.00
2022-10-07T20:40:15.060Z,11.90
2022-10-07T20:44:17.429Z,11.80
2022-10-07T20:48:19.027Z,11.80
2022-10-07T20:52:24.802Z,11.70
2022-10-07T20:56:26.457Z,11.70
2022-10-07T21:00:28.153Z,11.50
2022-10-07T21:04:30.112Z,11.20
2022-10-07T21:08:31.753Z,11.00
2022-10-07T21:12:33.488Z,10.70
2022-10-07T21:16:36.393Z,10.70
2022-10-07T21:20:38.401Z,10.60
2022-10-07T21:24:40.194Z,10.50
2022-10-07T21:28:42.409Z,10.40
2022-10-07T21:32:44.382Z,10.40
2022-10-07T21:36:50.402Z,10.30
2022-10-07T21:40:54.804Z,10.40
2022-10-07T21:44:56.442Z,10.20
2022-10-07T21:48:58.251Z,10.30
2022-10-07T21:52:59.896Z,10.20
2022-10-07T21:57:01.490Z,10.40
2022-10-07T22:01:04.357Z,10.40
2022-10-07T22:05:06.251Z,10.60
2022-10-07T22:09:08.240Z,10.60
2022-10-07T22:13:09.860Z,10.50
2022-10-07T22:17:14.062Z,10.40
2022-10-07T22:21:19.257Z,10.30
2022-10-07T22:25:23.022Z,10.30
2022-10-07T22:29:25.203Z,10.30
2022-10-07T22:33:26.813Z,10.30
2022-10-07T22:37:29.872Z,10.20
2022-10-07T22:41:32.309Z,10.20
2022-10-07T22:45:36.223Z,10.10
2022-10-07T22:49:37.804Z,10.10
2022-10-07T22:53:40.330Z,10.20
2022-10-07T22:57:42.031Z,10.30
2022-10-07T23:01:43.666Z,10.30
2022-10-07T23:05:45.276Z,10.40
2022-10-07T23:09:46.842Z,10.30
2022-10-07T23:13:48.488Z,10.50
2022-10-07T23:17:50.219Z,10.70
2022-10-07T23:21:51.853Z,10.60
2022-10-07T23:25:53.531Z,10.60
2022-10-07T23:29:55.137Z,10.60
2022-10-07T23:33:57.650Z,10.60
2022-10-07T23:38:00.379Z,10.60
2022-10-07T23:42:01.956Z,10.70
2022-10-07T23:46:04.637Z,10.70
2022-10-07T23:50:06.572Z,10.70
2022-10-07T23:54:10.192Z,10.80
2022-10-07T23:58:12.748Z,10.70
